KFOT

Rohnerville Airport

Fortuna, California, USA
METAR KFOT 172215Z AUTO 31011KT 10SM CLR 18/14 A3012 RMK AO1
Observed Flight Rules
Aug-17 @ 22:15 UTC (22 minutes ago) Visual Flight Rules
Wind Visibility Clouds
310° at 11 knots 10 miles
  • Clear skies
Temperatures Readings
Current 18°C / 64°F
Dewpoint 14°C / 57°F
Humidity 78%
Altimeter 30.12" Hg
Pressure 1020 hPa
Elevation 120
METAR KFOT 172215Z AUTO 31011KT 10SM CLR 18/14 A3012 RMK AO1
Observed Flight Rules
Aug-17 @ 22:15 UTC
(22 minutes ago)
VFR
Wind Visibility
310° at 11 knots 10 miles
Clouds
  • Clear skies
Temperature Dewpoint
18°C / 64°F 14°C / 57°F
Humidity Altimeter Pressure
78% 30.12" Hg 1020 hPa